createdAt,value
2023-05-25T00:00:32.613Z,5.60
2023-05-25T00:04:17.144Z,5.05
2023-05-25T00:08:01.369Z,5.80
2023-05-25T00:11:43.333Z,5.03
2023-05-25T00:15:25.704Z,5.50
2023-05-25T00:19:07.651Z,5.65
2023-05-25T00:22:49.528Z,6.15
2023-05-25T00:26:31.397Z,4.75
2023-05-25T00:30:13.736Z,5.00
2023-05-25T00:33:55.776Z,6.15
2023-05-25T00:37:37.623Z,5.70
2023-05-25T00:41:19.525Z,5.47
2023-05-25T00:45:01.493Z,5.75
2023-05-25T00:48:43.921Z,5.38
2023-05-25T00:52:27.224Z,5.07
2023-05-25T00:56:15.946Z,4.95
2023-05-25T00:59:59.055Z,5.70
2023-05-25T01:03:45.652Z,5.78
2023-05-25T01:07:29.078Z,6.05
2023-05-25T01:11:15.117Z,5.65
2023-05-25T01:14:57.339Z,5.35
2023-05-25T01:18:42.011Z,5.60
2023-05-25T01:22:32.676Z,5.57
2023-05-25T01:26:18.117Z,5.47
2023-05-25T01:30:01.268Z,4.63
2023-05-25T01:33:44.831Z,4.95
2023-05-25T01:37:28.209Z,5.18
2023-05-25T01:41:10.094Z,5.30
2023-05-25T01:44:52.099Z,5.13
2023-05-25T01:48:45.641Z,6.03
2023-05-25T01:52:31.575Z,5.30
2023-05-25T01:56:14.759Z,5.28
2023-05-25T02:00:03.101Z,5.53
2023-05-25T02:03:49.250Z,4.93
2023-05-25T02:07:31.319Z,5.00
2023-05-25T02:11:14.698Z,5.60
2023-05-25T02:14:56.710Z,5.57
2023-05-25T02:18:38.559Z,5.00
2023-05-25T02:22:23.909Z,6.40
2023-05-25T02:26:06.055Z,5.32
2023-05-25T02:29:47.939Z,5.45
2023-05-25T02:33:29.862Z,5.18
2023-05-25T02:37:11.821Z,5.95
2023-05-25T02:40:53.681Z,5.20
2023-05-25T02:44:35.872Z,5.80
2023-05-25T02:48:17.747Z,5.45
2023-05-25T02:51:59.632Z,4.90
2023-05-25T02:55:43.701Z,5.03
2023-05-25T02:59:25.786Z,5.57
2023-05-25T03:03:07.701Z,5.57
2023-05-25T03:06:49.639Z,5.50
2023-05-25T03:10:31.476Z,5.30
2023-05-25T03:14:13.764Z,5.18
2023-05-25T03:18:01.116Z,5.10
2023-05-25T03:21:43.010Z,4.80
2023-05-25T03:25:24.988Z,5.13
2023-05-25T03:29:07.160Z,4.72
2023-05-25T03:32:49.166Z,5.18
2023-05-25T03:36:32.572Z,5.95
2023-05-25T03:40:14.604Z,5.10
2023-05-25T03:43:56.489Z,5.68
2023-05-25T03:47:38.377Z,5.13
2023-05-25T03:51:20.570Z,4.70
2023-05-25T03:55:04.465Z,5.35
2023-05-25T03:58:46.448Z,5.15
2023-05-25T04:02:28.382Z,5.00
2023-05-25T04:06:10.418Z,5.45
2023-05-25T04:09:52.314Z,4.90
2023-05-25T04:13:36.422Z,5.10
2023-05-25T04:17:19.459Z,6.15
2023-05-25T04:21:01.374Z,5.72
2023-05-25T04:24:43.207Z,5.47
2023-05-25T04:28:25.138Z,6.03
2023-05-25T04:32:09.611Z,6.22
2023-05-25T04:35:51.735Z,5.80
2023-05-25T04:39:33.710Z,6.18
2023-05-25T04:43:18.224Z,6.47
2023-05-25T04:47:01.391Z,5.82
2023-05-25T04:50:43.382Z,5.93
2023-05-25T04:54:25.581Z,5.47
2023-05-25T04:58:07.611Z,5.15
2023-05-25T05:01:49.566Z,5.25
2023-05-25T05:05:31.479Z,5.40
2023-05-25T05:09:13.475Z,5.45
2023-05-25T05:12:55.638Z,6.30
2023-05-25T05:16:37.795Z,5.60
2023-05-25T05:20:20.504Z,5.63
2023-05-25T05:24:02.505Z,6.40
2023-05-25T05:27:44.418Z,5.15
2023-05-25T05:31:27.481Z,5.50
2023-05-25T05:35:09.659Z,5.50
2023-05-25T05:38:51.537Z,5.57
2023-05-25T05:42:33.423Z,5.95
2023-05-25T05:46:15.466Z,5.40
2023-05-25T05:49:57.346Z,5.20
2023-05-25T05:53:39.223Z,6.18
2023-05-25T05:57:21.153Z,6.80
2023-05-25T06:01:03.475Z,5.68
2023-05-25T06:04:45.880Z,6.00
2023-05-25T06:08:27.818Z,5.97
2023-05-25T06:12:09.890Z,5.18
2023-05-25T06:15:51.838Z,5.88
2023-05-25T06:19:33.734Z,6.05
2023-05-25T06:23:15.904Z,5.72
2023-05-25T06:26:57.725Z,6.60
2023-05-25T06:30:39.645Z,5.60
2023-05-25T06:34:21.502Z,5.20
2023-05-25T06:38:04.037Z,6.18
2023-05-25T06:41:45.941Z,5.85
2023-05-25T06:45:27.969Z,5.65
2023-05-25T06:49:09.981Z,5.32
2023-05-25T06:52:52.035Z,5.05
2023-05-25T06:56:33.950Z,5.65
2023-05-25T07:00:16.548Z,5.30
2023-05-25T07:03:58.375Z,5.82
2023-05-25T07:07:40.282Z,5.60
2023-05-25T07:11:23.314Z,5.35
2023-05-25T07:15:06.205Z,4.85
2023-05-25T07:18:48.149Z,5.25
2023-05-25T07:22:30.116Z,5.78
2023-05-25T07:26:13.435Z,5.60
2023-05-25T07:29:55.312Z,5.53
2023-05-25T07:33:37.177Z,6.32
2023-05-25T07:37:19.013Z,5.45
2023-05-25T07:41:01.254Z,5.60
2023-05-25T07:44:44.575Z,4.72
2023-05-25T07:48:26.446Z,5.05
2023-05-25T07:52:08.324Z,5.10
2023-05-25T07:55:50.222Z,4.70
2023-05-25T07:59:32.066Z,5.30
2023-05-25T08:03:14.074Z,6.03
2023-05-25T08:06:56.418Z,5.35
2023-05-25T08:10:38.291Z,4.70
2023-05-25T08:14:21.062Z,5.55
2023-05-25T08:18:04.528Z,4.90
2023-05-25T08:21:46.489Z,4.40
2023-05-25T08:25:28.404Z,4.65
2023-05-25T08:29:10.395Z,4.55
2023-05-25T08:32:52.356Z,5.05
2023-05-25T08:36:35.884Z,4.78
2023-05-25T08:40:20.509Z,5.03
2023-05-25T08:44:06.562Z,4.50
2023-05-25T08:47:53.828Z,4.40
2023-05-25T08:51:37.974Z,4.72
2023-05-25T08:55:23.850Z,5.07
2023-05-25T09:03:10.815Z,5.22
2023-05-25T09:10:38.684Z,5.00
2023-05-25T09:14:21.166Z,4.80
2023-05-25T09:18:03.057Z,3.92
2023-05-25T09:21:44.948Z,5.50
2023-05-25T09:25:29.149Z,4.63
2023-05-25T09:29:14.110Z,4.57
2023-05-25T09:32:56.249Z,4.82
2023-05-25T09:36:41.391Z,4.30
2023-05-25T09:40:23.384Z,3.73
2023-05-25T09:44:11.012Z,4.30
2023-05-25T09:47:57.351Z,3.70
2023-05-25T09:51:39.520Z,3.17
2023-05-25T09:55:21.855Z,3.15
2023-05-25T09:59:04.353Z,3.35
2023-05-25T10:02:46.682Z,3.25
2023-05-25T10:06:29.173Z,2.97
2023-05-25T10:10:15.683Z,3.00
2023-05-25T10:14:03.802Z,3.58
2023-05-25T10:17:53.347Z,3.38
2023-05-25T10:21:37.999Z,3.42
2023-05-25T10:25:38.739Z,2.72
2023-05-25T10:29:22.117Z,3.63
2023-05-25T10:33:05.120Z,3.25
2023-05-25T10:36:49.194Z,3.03
2023-05-25T10:40:32.672Z,2.95
2023-05-25T10:44:15.493Z,2.70
2023-05-25T10:47:58.061Z,3.22
2023-05-25T10:51:43.903Z,2.55
2023-05-25T10:55:31.544Z,2.88
2023-05-25T10:59:13.723Z,2.40
2023-05-25T11:02:56.087Z,2.72
2023-05-25T11:06:40.321Z,2.03
2023-05-25T11:10:50.056Z,2.50
2023-05-25T11:14:33.799Z,2.13
2023-05-25T11:18:15.708Z,2.43
2023-05-25T11:22:12.613Z,2.40
2023-05-25T11:26:06.105Z,2.70
2023-05-25T11:29:51.368Z,2.50
2023-05-25T11:33:33.252Z,2.60
2023-05-25T11:37:29.128Z,2.67
2023-05-25T11:41:24.086Z,2.55
2023-05-25T11:45:06.339Z,2.00
2023-05-25T11:48:52.852Z,2.00
2023-05-25T11:52:34.724Z,2.35
2023-05-25T11:56:33.714Z,2.17
2023-05-25T12:00:25.749Z,2.13
2023-05-25T12:04:12.242Z,2.30
2023-05-25T12:07:54.184Z,2.45
2023-05-25T12:11:45.320Z,2.40
2023-05-25T12:15:28.573Z,2.78
2023-05-25T12:19:12.031Z,2.67
2023-05-25T12:22:54.071Z,2.45
2023-05-25T12:26:46.920Z,2.42
2023-05-25T12:30:28.934Z,2.58
2023-05-25T12:34:17.671Z,2.55
2023-05-25T12:38:19.407Z,2.60
2023-05-25T12:42:02.452Z,3.15
2023-05-25T12:45:44.720Z,2.80
2023-05-25T12:49:31.000Z,3.00
2023-05-25T12:53:16.551Z,3.00
2023-05-25T12:56:58.598Z,2.92
2023-05-25T13:00:43.732Z,2.78
2023-05-25T13:04:26.880Z,3.20
2023-05-25T13:08:08.863Z,3.30
2023-05-25T13:11:50.797Z,2.78
2023-05-25T13:15:32.817Z,3.15
2023-05-25T13:19:14.751Z,2.70
2023-05-25T13:22:56.833Z,2.92
2023-05-25T13:26:38.811Z,2.60
2023-05-25T13:30:22.201Z,2.50
2023-05-25T13:34:04.430Z,2.45
2023-05-25T13:37:46.486Z,2.70
2023-05-25T13:41:28.466Z,3.55
2023-05-25T13:45:11.395Z,2.85
2023-05-25T13:48:53.326Z,3.80
2023-05-25T13:52:36.994Z,2.58
2023-05-25T13:56:19.026Z,2.65
2023-05-25T14:00:00.855Z,2.88
2023-05-25T14:03:42.972Z,2.50
2023-05-25T14:07:25.009Z,2.85
2023-05-25T14:11:06.907Z,2.97
2023-05-25T14:14:48.784Z,2.88
2023-05-25T14:18:31.001Z,2.92
2023-05-25T14:22:14.432Z,2.72
2023-05-25T14:25:56.592Z,2.95
2023-05-25T14:29:38.549Z,3.38
2023-05-25T14:33:20.521Z,2.85
2023-05-25T14:37:02.387Z,2.33
2023-05-25T14:40:44.376Z,2.88
2023-05-25T14:44:26.232Z,2.95
2023-05-25T14:48:16.585Z,3.47
2023-05-25T14:51:59.071Z,3.70
2023-05-25T14:55:41.251Z,3.58
2023-05-25T14:59:23.215Z,3.67
2023-05-25T15:03:05.143Z,3.05
2023-05-25T15:06:47.039Z,3.67
2023-05-25T15:10:29.741Z,3.20
2023-05-25T15:14:11.639Z,3.72
2023-05-25T15:17:53.563Z,4.00
2023-05-25T15:21:37.071Z,3.47
2023-05-25T15:25:24.459Z,4.40
2023-05-25T15:29:16.259Z,4.20
2023-05-25T15:32:58.101Z,4.30
2023-05-25T15:36:39.961Z,4.80
2023-05-25T15:40:21.817Z,4.03
2023-05-25T15:44:08.171Z,3.83
2023-05-25T15:47:50.621Z,4.90
2023-05-25T15:51:32.811Z,4.63
2023-05-25T15:55:14.732Z,5.28
2023-05-25T15:58:56.873Z,5.20
2023-05-25T16:02:38.950Z,4.93
2023-05-25T16:06:20.998Z,5.32
2023-05-25T16:10:02.958Z,5.60
2023-05-25T16:13:44.809Z,4.97
2023-05-25T16:17:26.778Z,5.13
2023-05-25T16:21:08.673Z,5.95
2023-05-25T16:24:50.584Z,5.32
2023-05-25T16:28:34.292Z,4.88
2023-05-25T16:32:16.258Z,6.43
2023-05-25T16:35:58.659Z,5.05
2023-05-25T16:39:40.573Z,5.32
2023-05-25T16:43:25.199Z,5.95
2023-05-25T16:47:08.641Z,4.95
2023-05-25T16:50:50.658Z,4.75
2023-05-25T16:54:32.575Z,4.90
2023-05-25T16:58:14.449Z,4.65
2023-05-25T17:01:56.578Z,4.38
2023-05-25T17:05:38.529Z,4.30
2023-05-25T17:09:21.159Z,4.13
2023-05-25T17:13:03.021Z,4.32
2023-05-25T17:16:44.893Z,4.38
2023-05-25T17:20:26.849Z,4.53
2023-05-25T17:24:09.040Z,4.82
2023-05-25T17:27:50.876Z,4.47
2023-05-25T17:31:33.098Z,4.63
2023-05-25T17:35:17.843Z,5.18
2023-05-25T17:38:59.728Z,4.35
2023-05-25T17:42:41.614Z,4.45
2023-05-25T17:46:23.520Z,4.35
2023-05-25T17:50:05.947Z,5.20
2023-05-25T17:53:47.939Z,4.22
2023-05-25T17:57:29.777Z,4.40
2023-05-25T18:01:11.717Z,4.65
2023-05-25T18:04:53.682Z,4.30
2023-05-25T18:08:35.612Z,4.00
2023-05-25T18:12:17.572Z,4.07
2023-05-25T18:15:59.732Z,3.88
2023-05-25T18:19:41.668Z,4.70
2023-05-25T18:23:23.550Z,4.60
2023-05-25T18:27:06.151Z,4.13
2023-05-25T18:30:48.090Z,4.78
2023-05-25T18:34:30.364Z,4.50
2023-05-25T18:38:12.364Z,4.68
2023-05-25T18:41:54.314Z,4.00
2023-05-25T18:45:36.120Z,4.45
2023-05-25T18:49:18.023Z,4.63
2023-05-25T18:52:59.964Z,4.35
2023-05-25T18:56:41.933Z,4.18
2023-05-25T19:00:23.840Z,4.05
2023-05-25T19:04:05.973Z,4.20
2023-05-25T19:11:32.766Z,3.63
2023-05-25T19:15:15.536Z,5.22
2023-05-25T19:18:57.398Z,4.07
2023-05-25T19:22:39.994Z,4.28
2023-05-25T19:26:21.857Z,4.28
2023-05-25T19:30:04.088Z,4.28
2023-05-25T19:33:45.983Z,4.93
2023-05-25T19:37:27.813Z,5.05
2023-05-25T19:41:09.784Z,4.50
2023-05-25T19:44:51.959Z,5.15
2023-05-25T19:48:33.840Z,5.03
2023-05-25T19:52:18.872Z,4.68
2023-05-25T19:56:00.834Z,4.32
2023-05-25T19:59:43.383Z,5.00
2023-05-25T20:03:25.310Z,4.40
2023-05-25T20:07:07.361Z,4.82
2023-05-25T20:10:50.918Z,4.90
2023-05-25T20:14:33.809Z,4.10
2023-05-25T20:18:15.734Z,4.05
2023-05-25T20:21:59.592Z,4.82
2023-05-25T20:25:41.499Z,4.35
2023-05-25T20:29:24.312Z,4.63
2023-05-25T20:33:07.873Z,4.43
2023-05-25T20:36:51.206Z,4.72
2023-05-25T20:40:33.174Z,4.80
2023-05-25T20:44:15.096Z,4.85
2023-05-25T20:48:04.226Z,4.93
2023-05-25T20:51:50.080Z,4.53
2023-05-25T20:55:32.768Z,4.77
2023-05-25T20:59:14.719Z,5.40
2023-05-25T21:02:56.639Z,4.93
2023-05-25T21:06:38.740Z,4.47
2023-05-25T21:10:20.845Z,4.72
2023-05-25T21:14:03.294Z,5.60
2023-05-25T21:17:45.299Z,5.57
2023-05-25T21:21:28.910Z,5.15
2023-05-25T21:25:11.295Z,4.88
2023-05-25T21:28:53.217Z,4.97
2023-05-25T21:32:35.170Z,5.75
2023-05-25T21:36:17.575Z,5.50
2023-05-25T21:39:59.402Z,5.10
2023-05-25T21:43:41.290Z,5.43
2023-05-25T21:47:23.198Z,5.00
2023-05-25T21:51:05.588Z,5.10
2023-05-25T21:54:47.518Z,5.43
2023-05-25T21:58:29.384Z,5.70
2023-05-25T22:02:11.557Z,5.47
2023-05-25T22:05:53.513Z,5.55
2023-05-25T22:09:35.520Z,6.28
2023-05-25T22:13:17.376Z,5.00
2023-05-25T22:16:59.252Z,5.82
2023-05-25T22:20:42.112Z,5.43
2023-05-25T22:24:24.236Z,5.68
2023-05-25T22:28:06.345Z,5.20
2023-05-25T22:31:48.444Z,6.25
2023-05-25T22:35:30.255Z,6.20
2023-05-25T22:39:12.123Z,5.75
2023-05-25T22:42:53.953Z,5.75
2023-05-25T22:46:35.980Z,5.75
2023-05-25T22:50:17.986Z,5.90
2023-05-25T22:53:59.881Z,5.80
2023-05-25T22:57:41.783Z,5.18
2023-05-25T23:01:23.704Z,5.57
2023-05-25T23:05:06.368Z,6.07
2023-05-25T23:08:48.198Z,6.55
2023-05-25T23:12:30.081Z,6.07
2023-05-25T23:16:15.256Z,6.30
2023-05-25T23:19:57.212Z,5.88
2023-05-25T23:23:39.218Z,6.50
2023-05-25T23:27:21.230Z,6.30
2023-05-25T23:31:03.074Z,5.38
2023-05-25T23:34:44.971Z,7.00
2023-05-25T23:38:26.887Z,6.60
2023-05-25T23:42:08.825Z,6.22
2023-05-25T23:45:50.933Z,6.10
2023-05-25T23:49:32.952Z,5.97
2023-05-25T23:53:14.874Z,7.30
2023-05-25T23:56:56.715Z,6.22
